メインページ
METAR-TAF:

METAR-TAF

空港 :

ヘルシンキ, フィンランド

ヘルシンキ・ヴァンター国際空港

緯度: 60-19N, 経度: 024-58E, 海抜: 51m

現時点の気象観測

当レポートは34分前の05:50(UTC)に作成
の風 16kt
気温 1°C
湿度 80%
気圧 998 hPa
視程10km以上
高度1800ftの千切れ雲あり

METAR: EFHK 140550Z 17016KT 9999 BKN018 01/M02 Q0998 NOSIG

時間: 08:24 (06:24 UTC)

予報

当レポートは48分前の05:36(UTC)に作成
予報は14日の 06時(UTC)から 15日の 06時(UTC)まで有効
の風 17kt
視程10km以上
高度1500ftの雲はほとんどない
高度2000ftの千切れ雲あり
14日の 06時(UTC)から 14日の 08時(UTC)まで一時的に
の風 17kt、最大27ktの突風を伴う
14日の 20時(UTC)から 14日の 23時(UTC)まで徐々に
視程: 2000m
高度800ftの千切れ雲あり
14日の 23時(UTC)から 15日の 06時(UTC)まで一時的に
視程: 5000m
高度1200ftの
小雪

TAF: EFHK 140536Z 1406/1506 18017KT 9999 FEW015 BKN020 TEMPO 1406/1408 17017G27KT BECMG 1420/1423 2000 SN BKN008 TEMPO 1423/1506 5000 -SN VV012

4,000以上の空港の気象観測と天気予報(METAR報とTAF報)

利用可能な観測所は地図上に黄色い丸と赤い丸で示す。

丸の上にカーソルを重ねると観測所名を参照できる。

次にクリックすると気象観測と天気予報を参照できる。

マップの切り替え:黒色「×」印の緑ボタンをクリックして拡大、「-」印の緑ボタンをクリックして縮小、緑色の三角印をクリックして隣りの地図に切り替え


METAR-TAF: